Terminal Aerodrome Forecast
Issued by NWS

Home | Current Version | Previous Version | Text Only | Print | Product List | Glossary On
Versions: 1 2 3 4 5 6 7 8 9 10 11 12 13
000
FTUS42 KTAE 010500
TAFDHN
TAF
KDHN 010532Z 0106/0206 09005KT P6SM BKN250
     FM011200 12010G15KT P6SM BKN025
     FM011800 18012G18KT 5SM -RA OVC025
     FM020000 18014KT 2SM -TSRA BR OVC007CB=

USA.gov is the U.S. government's official web portal to all federal, state and local government web resources and services.